sensor_id;sensor_type;location;lat;lon;timestamp;P1;durP1;ratioP1;P2;durP2;ratioP2
29546;SDS011;40782;47.264;11.330;2022-10-17T00:01:47;6.63;;;5.93;;
29546;SDS011;40782;47.264;11.330;2022-10-17T00:04:15;7.93;;;6.50;;
29546;SDS011;40782;47.264;11.330;2022-10-17T00:06:42;8.25;;;6.00;;
29546;SDS011;40782;47.264;11.330;2022-10-17T00:09:09;9.93;;;6.40;;
29546;SDS011;40782;47.264;11.330;2022-10-17T00:11:36;6.82;;;6.13;;
29546;SDS011;40782;47.264;11.330;2022-10-17T00:14:04;7.88;;;5.88;;
29546;SDS011;40782;47.264;11.330;2022-10-17T00:16:33;8.60;;;5.85;;
29546;SDS011;40782;47.264;11.330;2022-10-17T00:19:03;8.60;;;6.47;;
29546;SDS011;40782;47.264;11.330;2022-10-17T00:21:31;8.20;;;6.38;;
29546;SDS011;40782;47.264;11.330;2022-10-17T00:23:59;8.48;;;6.60;;
29546;SDS011;40782;47.264;11.330;2022-10-17T00:26:27;8.80;;;5.90;;
29546;SDS011;40782;47.264;11.330;2022-10-17T00:28:54;7.20;;;6.50;;
29546;SDS011;40782;47.264;11.330;2022-10-17T00:31:22;6.88;;;5.72;;
29546;SDS011;40782;47.264;11.330;2022-10-17T00:33:50;8.15;;;6.82;;
29546;SDS011;40782;47.264;11.330;2022-10-17T00:36:20;10.00;;;6.38;;
29546;SDS011;40782;47.264;11.330;2022-10-17T00:38:49;8.05;;;5.85;;
29546;SDS011;40782;47.264;11.330;2022-10-17T00:41:19;6.53;;;5.80;;
29546;SDS011;40782;47.264;11.330;2022-10-17T00:43:49;7.30;;;6.20;;
29546;SDS011;40782;47.264;11.330;2022-10-17T00:46:17;11.45;;;6.10;;
29546;SDS011;40782;47.264;11.330;2022-10-17T00:48:46;6.72;;;6.03;;
29546;SDS011;40782;47.264;11.330;2022-10-17T00:51:15;6.65;;;5.85;;
29546;SDS011;40782;47.264;11.330;2022-10-17T00:53:46;8.70;;;6.00;;
29546;SDS011;40782;47.264;11.330;2022-10-17T00:56:16;6.70;;;6.00;;
29546;SDS011;40782;47.264;11.330;2022-10-17T00:58:44;6.43;;;5.82;;
29546;SDS011;40782;47.264;11.330;2022-10-17T01:01:11;6.72;;;5.88;;
29546;SDS011;40782;47.264;11.330;2022-10-17T01:03:39;8.02;;;5.95;;
29546;SDS011;40782;47.264;11.330;2022-10-17T01:06:06;6.00;;;5.40;;
29546;SDS011;40782;47.264;11.330;2022-10-17T01:08:33;10.25;;;5.97;;
29546;SDS011;40782;47.264;11.330;2022-10-17T01:11:03;9.18;;;5.85;;
29546;SDS011;40782;47.264;11.330;2022-10-17T01:13:37;6.93;;;6.10;;
29546;SDS011;40782;47.264;11.330;2022-10-17T01:16:08;8.88;;;5.95;;
29546;SDS011;40782;47.264;11.330;2022-10-17T01:18:48;11.82;;;6.65;;
29546;SDS011;40782;47.264;11.330;2022-10-17T01:21:31;9.00;;;6.38;;
29546;SDS011;40782;47.264;11.330;2022-10-17T01:24:17;9.02;;;6.00;;
29546;SDS011;40782;47.264;11.330;2022-10-17T01:27:17;9.98;;;6.18;;
29546;SDS011;40782;47.264;11.330;2022-10-17T01:33:01;7.63;;;6.15;;
29546;SDS011;40782;47.264;11.330;2022-10-17T01:35:33;7.70;;;6.00;;
29546;SDS011;40782;47.264;11.330;2022-10-17T01:38:06;9.05;;;6.40;;
29546;SDS011;40782;47.264;11.330;2022-10-17T01:40:36;7.27;;;6.17;;
29546;SDS011;40782;47.264;11.330;2022-10-17T01:45:40;9.43;;;6.25;;
29546;SDS011;40782;47.264;11.330;2022-10-17T01:48:15;10.32;;;5.80;;
29546;SDS011;40782;47.264;11.330;2022-10-17T01:50:46;9.80;;;6.03;;
29546;SDS011;40782;47.264;11.330;2022-10-17T01:53:17;10.13;;;6.05;;
29546;SDS011;40782;47.264;11.330;2022-10-17T01:55:47;9.20;;;6.32;;
29546;SDS011;40782;47.264;11.330;2022-10-17T01:58:18;6.68;;;5.95;;
29546;SDS011;40782;47.264;11.330;2022-10-17T02:00:49;7.38;;;6.00;;
29546;SDS011;40782;47.264;11.330;2022-10-17T02:03:18;8.65;;;6.38;;
29546;SDS011;40782;47.264;11.330;2022-10-17T02:05:47;11.38;;;6.07;;
29546;SDS011;40782;47.264;11.330;2022-10-17T02:08:22;9.88;;;6.03;;
29546;SDS011;40782;47.264;11.330;2022-10-17T02:10:52;7.70;;;5.40;;
29546;SDS011;40782;47.264;11.330;2022-10-17T02:13:25;7.35;;;5.78;;
29546;SDS011;40782;47.264;11.330;2022-10-17T02:16:09;8.10;;;6.28;;
29546;SDS011;40782;47.264;11.330;2022-10-17T02:18:49;7.93;;;5.53;;
29546;SDS011;40782;47.264;11.330;2022-10-17T02:21:39;9.73;;;6.57;;
29546;SDS011;40782;47.264;11.330;2022-10-17T02:24:16;7.72;;;5.93;;
29546;SDS011;40782;47.264;11.330;2022-10-17T02:26:51;11.07;;;6.32;;
29546;SDS011;40782;47.264;11.330;2022-10-17T02:29:24;8.63;;;5.55;;
29546;SDS011;40782;47.264;11.330;2022-10-17T02:31:57;6.85;;;5.60;;
29546;SDS011;40782;47.264;11.330;2022-10-17T02:34:28;6.68;;;5.95;;
29546;SDS011;40782;47.264;11.330;2022-10-17T02:36:59;6.60;;;6.00;;
29546;SDS011;40782;47.264;11.330;2022-10-17T02:39:28;9.80;;;5.57;;
29546;SDS011;40782;47.264;11.330;2022-10-17T02:41:57;7.03;;;5.82;;
29546;SDS011;40782;47.264;11.330;2022-10-17T02:44:28;10.20;;;6.40;;
29546;SDS011;40782;47.264;11.330;2022-10-17T02:46:58;8.13;;;6.20;;
29546;SDS011;40782;47.264;11.330;2022-10-17T02:49:33;7.68;;;6.10;;
29546;SDS011;40782;47.264;11.330;2022-10-17T02:52:05;6.95;;;6.13;;
29546;SDS011;40782;47.264;11.330;2022-10-17T02:54:38;7.20;;;5.75;;
29546;SDS011;40782;47.264;11.330;2022-10-17T02:57:09;12.23;;;5.68;;
29546;SDS011;40782;47.264;11.330;2022-10-17T02:59:42;6.97;;;6.28;;
29546;SDS011;40782;47.264;11.330;2022-10-17T03:02:10;10.18;;;5.78;;
29546;SDS011;40782;47.264;11.330;2022-10-17T03:04:39;7.63;;;5.70;;
29546;SDS011;40782;47.264;11.330;2022-10-17T03:07:08;6.53;;;5.72;;
29546;SDS011;40782;47.264;11.330;2022-10-17T03:09:36;7.50;;;6.13;;
29546;SDS011;40782;47.264;11.330;2022-10-17T03:12:03;8.75;;;6.18;;
29546;SDS011;40782;47.264;11.330;2022-10-17T03:14:30;10.13;;;6.65;;
29546;SDS011;40782;47.264;11.330;2022-10-17T03:16:58;8.80;;;6.35;;
29546;SDS011;40782;47.264;11.330;2022-10-17T03:19:25;7.13;;;5.65;;
29546;SDS011;40782;47.264;11.330;2022-10-17T03:21:53;7.60;;;5.85;;
29546;SDS011;40782;47.264;11.330;2022-10-17T03:24:20;8.40;;;5.22;;
29546;SDS011;40782;47.264;11.330;2022-10-17T03:26:47;6.00;;;5.22;;
29546;SDS011;40782;47.264;11.330;2022-10-17T03:29:15;6.43;;;5.63;;
29546;SDS011;40782;47.264;11.330;2022-10-17T03:31:42;9.32;;;6.15;;
29546;SDS011;40782;47.264;11.330;2022-10-17T03:34:09;9.18;;;6.05;;
29546;SDS011;40782;47.264;11.330;2022-10-17T03:36:36;7.03;;;5.78;;
29546;SDS011;40782;47.264;11.330;2022-10-17T03:39:05;5.93;;;5.38;;
29546;SDS011;40782;47.264;11.330;2022-10-17T03:41:32;7.53;;;5.38;;
29546;SDS011;40782;47.264;11.330;2022-10-17T03:43:59;6.13;;;5.55;;
29546;SDS011;40782;47.264;11.330;2022-10-17T03:46:26;10.93;;;5.93;;
29546;SDS011;40782;47.264;11.330;2022-10-17T03:48:53;8.00;;;6.20;;
29546;SDS011;40782;47.264;11.330;2022-10-17T03:51:21;6.72;;;5.75;;
29546;SDS011;40782;47.264;11.330;2022-10-17T03:53:48;11.05;;;5.93;;
29546;SDS011;40782;47.264;11.330;2022-10-17T03:56:17;7.82;;;5.45;;
29546;SDS011;40782;47.264;11.330;2022-10-17T03:58:46;8.13;;;6.32;;
29546;SDS011;40782;47.264;11.330;2022-10-17T04:01:14;9.82;;;5.97;;
29546;SDS011;40782;47.264;11.330;2022-10-17T04:03:42;9.07;;;6.10;;
29546;SDS011;40782;47.264;11.330;2022-10-17T04:06:10;11.80;;;6.63;;
29546;SDS011;40782;47.264;11.330;2022-10-17T04:08:38;6.38;;;5.70;;
29546;SDS011;40782;47.264;11.330;2022-10-17T04:11:07;8.70;;;5.85;;
29546;SDS011;40782;47.264;11.330;2022-10-17T04:13:36;12.77;;;6.57;;
29546;SDS011;40782;47.264;11.330;2022-10-17T04:16:03;7.63;;;6.82;;
29546;SDS011;40782;47.264;11.330;2022-10-17T04:18:32;7.80;;;6.18;;
29546;SDS011;40782;47.264;11.330;2022-10-17T04:21:00;7.18;;;5.95;;
29546;SDS011;40782;47.264;11.330;2022-10-17T04:23:27;9.27;;;6.72;;
29546;SDS011;40782;47.264;11.330;2022-10-17T04:25:55;6.93;;;6.28;;
29546;SDS011;40782;47.264;11.330;2022-10-17T04:28:22;7.15;;;6.05;;
29546;SDS011;40782;47.264;11.330;2022-10-17T04:30:56;9.38;;;5.63;;
29546;SDS011;40782;47.264;11.330;2022-10-17T04:33:24;8.18;;;6.45;;
29546;SDS011;40782;47.264;11.330;2022-10-17T04:35:55;8.93;;;6.80;;
29546;SDS011;40782;47.264;11.330;2022-10-17T04:38:22;10.07;;;7.68;;
29546;SDS011;40782;47.264;11.330;2022-10-17T04:40:50;9.48;;;7.35;;
29546;SDS011;40782;47.264;11.330;2022-10-17T04:43:17;10.52;;;7.68;;
29546;SDS011;40782;47.264;11.330;2022-10-17T04:45:44;12.20;;;8.18;;
29546;SDS011;40782;47.264;11.330;2022-10-17T04:48:13;11.82;;;8.40;;
29546;SDS011;40782;47.264;11.330;2022-10-17T04:50:40;9.68;;;6.72;;
29546;SDS011;40782;47.264;11.330;2022-10-17T04:53:07;8.25;;;6.78;;
29546;SDS011;40782;47.264;11.330;2022-10-17T04:55:37;10.27;;;7.00;;
29546;SDS011;40782;47.264;11.330;2022-10-17T04:58:04;8.90;;;6.70;;
29546;SDS011;40782;47.264;11.330;2022-10-17T05:00:31;20.27;;;12.20;;
29546;SDS011;40782;47.264;11.330;2022-10-17T05:02:58;16.95;;;10.50;;
29546;SDS011;40782;47.264;11.330;2022-10-17T05:05:27;18.30;;;12.13;;
29546;SDS011;40782;47.264;11.330;2022-10-17T05:07:54;16.40;;;11.70;;
29546;SDS011;40782;47.264;11.330;2022-10-17T05:10:22;15.68;;;10.88;;
29546;SDS011;40782;47.264;11.330;2022-10-17T05:12:49;12.57;;;9.95;;
29546;SDS011;40782;47.264;11.330;2022-10-17T05:15:16;14.38;;;10.30;;
29546;SDS011;40782;47.264;11.330;2022-10-17T05:17:44;10.77;;;9.27;;
29546;SDS011;40782;47.264;11.330;2022-10-17T05:20:11;18.30;;;9.95;;
29546;SDS011;40782;47.264;11.330;2022-10-17T05:22:39;12.95;;;9.35;;
29546;SDS011;40782;47.264;11.330;2022-10-17T05:25:07;13.10;;;8.77;;
29546;SDS011;40782;47.264;11.330;2022-10-17T05:27:34;12.27;;;8.45;;
29546;SDS011;40782;47.264;11.330;2022-10-17T05:30:02;11.27;;;8.43;;
29546;SDS011;40782;47.264;11.330;2022-10-17T05:32:30;9.13;;;7.22;;
29546;SDS011;40782;47.264;11.330;2022-10-17T05:34:57;10.68;;;7.70;;
29546;SDS011;40782;47.264;11.330;2022-10-17T05:37:24;9.90;;;7.68;;
29546;SDS011;40782;47.264;11.330;2022-10-17T05:39:52;9.63;;;7.78;;
29546;SDS011;40782;47.264;11.330;2022-10-17T05:42:19;9.57;;;7.78;;
29546;SDS011;40782;47.264;11.330;2022-10-17T05:44:47;8.80;;;7.18;;
29546;SDS011;40782;47.264;11.330;2022-10-17T05:47:14;8.95;;;6.72;;
29546;SDS011;40782;47.264;11.330;2022-10-17T05:49:41;10.85;;;8.60;;
29546;SDS011;40782;47.264;11.330;2022-10-17T05:52:08;12.70;;;7.80;;
29546;SDS011;40782;47.264;11.330;2022-10-17T05:54:36;9.27;;;7.40;;
29546;SDS011;40782;47.264;11.330;2022-10-17T05:57:04;10.52;;;7.75;;
29546;SDS011;40782;47.264;11.330;2022-10-17T05:59:31;12.30;;;7.63;;
29546;SDS011;40782;47.264;11.330;2022-10-17T06:01:59;12.00;;;8.05;;
29546;SDS011;40782;47.264;11.330;2022-10-17T06:04:26;17.75;;;9.75;;
29546;SDS011;40782;47.264;11.330;2022-10-17T06:06:53;12.85;;;7.85;;
29546;SDS011;40782;47.264;11.330;2022-10-17T06:09:21;10.38;;;7.97;;
29546;SDS011;40782;47.264;11.330;2022-10-17T06:11:49;13.80;;;8.18;;
29546;SDS011;40782;47.264;11.330;2022-10-17T06:14:18;11.52;;;8.32;;
29546;SDS011;40782;47.264;11.330;2022-10-17T06:16:45;9.50;;;7.65;;
29546;SDS011;40782;47.264;11.330;2022-10-17T06:19:13;8.85;;;7.70;;
29546;SDS011;40782;47.264;11.330;2022-10-17T06:21:40;11.07;;;8.15;;
29546;SDS011;40782;47.264;11.330;2022-10-17T06:24:07;9.68;;;7.70;;
29546;SDS011;40782;47.264;11.330;2022-10-17T06:26:35;9.85;;;8.52;;
29546;SDS011;40782;47.264;11.330;2022-10-17T06:29:02;12.02;;;7.93;;
29546;SDS011;40782;47.264;11.330;2022-10-17T06:31:31;14.25;;;7.82;;
29546;SDS011;40782;47.264;11.330;2022-10-17T06:33:58;11.05;;;8.15;;
29546;SDS011;40782;47.264;11.330;2022-10-17T06:36:25;11.32;;;8.43;;
29546;SDS011;40782;47.264;11.330;2022-10-17T06:38:52;12.18;;;7.43;;
29546;SDS011;40782;47.264;11.330;2022-10-17T06:41:19;12.30;;;7.30;;
29546;SDS011;40782;47.264;11.330;2022-10-17T06:43:47;9.02;;;6.93;;
29546;SDS011;40782;47.264;11.330;2022-10-17T06:46:15;10.02;;;7.20;;
29546;SDS011;40782;47.264;11.330;2022-10-17T06:48:45;16.60;;;10.93;;
29546;SDS011;40782;47.264;11.330;2022-10-17T06:51:12;12.48;;;8.55;;
29546;SDS011;40782;47.264;11.330;2022-10-17T06:53:39;9.32;;;8.13;;
29546;SDS011;40782;47.264;11.330;2022-10-17T06:56:06;9.90;;;8.07;;
29546;SDS011;40782;47.264;11.330;2022-10-17T06:58:35;10.65;;;8.18;;
29546;SDS011;40782;47.264;11.330;2022-10-17T07:01:05;12.90;;;8.32;;
29546;SDS011;40782;47.264;11.330;2022-10-17T07:03:33;13.10;;;7.78;;
29546;SDS011;40782;47.264;11.330;2022-10-17T07:06:02;12.45;;;8.63;;
29546;SDS011;40782;47.264;11.330;2022-10-17T07:08:30;9.20;;;7.70;;
29546;SDS011;40782;47.264;11.330;2022-10-17T07:10:58;9.75;;;7.95;;
29546;SDS011;40782;47.264;11.330;2022-10-17T07:13:34;16.48;;;7.68;;
29546;SDS011;40782;47.264;11.330;2022-10-17T07:16:01;13.85;;;8.40;;
29546;SDS011;40782;47.264;11.330;2022-10-17T07:18:29;10.75;;;7.95;;
29546;SDS011;40782;47.264;11.330;2022-10-17T07:20:57;10.35;;;8.10;;
29546;SDS011;40782;47.264;11.330;2022-10-17T07:23:25;12.15;;;9.00;;
29546;SDS011;40782;47.264;11.330;2022-10-17T07:25:57;20.75;;;14.00;;
29546;SDS011;40782;47.264;11.330;2022-10-17T07:28:26;32.65;;;21.40;;
29546;SDS011;40782;47.264;11.330;2022-10-17T07:30:53;10.65;;;8.40;;
29546;SDS011;40782;47.264;11.330;2022-10-17T07:33:21;10.60;;;7.05;;
29546;SDS011;40782;47.264;11.330;2022-10-17T07:35:48;8.45;;;6.55;;
29546;SDS011;40782;47.264;11.330;2022-10-17T07:38:16;8.13;;;6.85;;
29546;SDS011;40782;47.264;11.330;2022-10-17T07:40:45;10.02;;;7.57;;
29546;SDS011;40782;47.264;11.330;2022-10-17T07:43:19;13.55;;;7.00;;
29546;SDS011;40782;47.264;11.330;2022-10-17T07:45:46;10.05;;;6.90;;
29546;SDS011;40782;47.264;11.330;2022-10-17T07:48:13;9.05;;;7.00;;
29546;SDS011;40782;47.264;11.330;2022-10-17T07:50:41;7.93;;;7.13;;
29546;SDS011;40782;47.264;11.330;2022-10-17T07:53:08;11.85;;;7.25;;
29546;SDS011;40782;47.264;11.330;2022-10-17T07:55:35;12.93;;;7.85;;
29546;SDS011;40782;47.264;11.330;2022-10-17T07:58:04;10.98;;;6.85;;
29546;SDS011;40782;47.264;11.330;2022-10-17T08:00:31;7.82;;;6.35;;
29546;SDS011;40782;47.264;11.330;2022-10-17T08:02:59;11.27;;;6.63;;
29546;SDS011;40782;47.264;11.330;2022-10-17T08:05:26;10.77;;;6.50;;
29546;SDS011;40782;47.264;11.330;2022-10-17T08:07:54;14.60;;;6.70;;
29546;SDS011;40782;47.264;11.330;2022-10-17T08:10:21;14.23;;;6.90;;
29546;SDS011;40782;47.264;11.330;2022-10-17T08:12:51;12.15;;;7.03;;
29546;SDS011;40782;47.264;11.330;2022-10-17T08:15:20;9.50;;;6.10;;
29546;SDS011;40782;47.264;11.330;2022-10-17T08:17:47;10.07;;;6.57;;
29546;SDS011;40782;47.264;11.330;2022-10-17T08:20:15;6.93;;;6.22;;
29546;SDS011;40782;47.264;11.330;2022-10-17T08:22:42;8.52;;;6.63;;
29546;SDS011;40782;47.264;11.330;2022-10-17T08:25:16;6.13;;;5.53;;
29546;SDS011;40782;47.264;11.330;2022-10-17T08:27:43;9.95;;;6.93;;
29546;SDS011;40782;47.264;11.330;2022-10-17T08:30:10;8.63;;;6.15;;
29546;SDS011;40782;47.264;11.330;2022-10-17T08:32:39;9.77;;;5.80;;
29546;SDS011;40782;47.264;11.330;2022-10-17T08:35:07;8.88;;;5.95;;
29546;SDS011;40782;47.264;11.330;2022-10-17T08:37:35;6.90;;;5.57;;
29546;SDS011;40782;47.264;11.330;2022-10-17T08:40:02;10.52;;;5.85;;
29546;SDS011;40782;47.264;11.330;2022-10-17T08:42:39;7.95;;;6.00;;
29546;SDS011;40782;47.264;11.330;2022-10-17T08:45:15;8.00;;;5.55;;
29546;SDS011;40782;47.264;11.330;2022-10-17T08:47:49;8.75;;;5.18;;
29546;SDS011;40782;47.264;11.330;2022-10-17T08:50:22;6.07;;;5.43;;
29546;SDS011;40782;47.264;11.330;2022-10-17T08:52:54;5.60;;;5.00;;
29546;SDS011;40782;47.264;11.330;2022-10-17T08:55:28;8.40;;;5.63;;
29546;SDS011;40782;47.264;11.330;2022-10-17T09:00:27;6.90;;;5.18;;
29546;SDS011;40782;47.264;11.330;2022-10-17T09:03:07;5.65;;;4.93;;
29546;SDS011;40782;47.264;11.330;2022-10-17T09:05:44;7.82;;;5.57;;
29546;SDS011;40782;47.264;11.330;2022-10-17T09:08:25;6.82;;;5.10;;
29546;SDS011;40782;47.264;11.330;2022-10-17T09:11:08;9.35;;;5.80;;
29546;SDS011;40782;47.264;11.330;2022-10-17T09:13:49;6.05;;;4.85;;
29546;SDS011;40782;47.264;11.330;2022-10-17T09:16:32;7.90;;;5.22;;
29546;SDS011;40782;47.264;11.330;2022-10-17T09:19:10;5.97;;;4.70;;
29546;SDS011;40782;47.264;11.330;2022-10-17T09:21:43;6.65;;;5.57;;
29546;SDS011;40782;47.264;11.330;2022-10-17T09:26:43;7.00;;;5.43;;
29546;SDS011;40782;47.264;11.330;2022-10-17T09:29:14;6.65;;;5.07;;
29546;SDS011;40782;47.264;11.330;2022-10-17T09:31:46;7.53;;;4.93;;
29546;SDS011;40782;47.264;11.330;2022-10-17T09:34:21;5.28;;;4.78;;
29546;SDS011;40782;47.264;11.330;2022-10-17T09:36:49;8.35;;;5.45;;
29546;SDS011;40782;47.264;11.330;2022-10-17T09:39:18;5.47;;;4.90;;
29546;SDS011;40782;47.264;11.330;2022-10-17T09:41:48;6.88;;;5.03;;
29546;SDS011;40782;47.264;11.330;2022-10-17T09:44:19;5.93;;;4.80;;
29546;SDS011;40782;47.264;11.330;2022-10-17T09:46:51;5.10;;;4.60;;
29546;SDS011;40782;47.264;11.330;2022-10-17T09:49:40;6.45;;;4.68;;
29546;SDS011;40782;47.264;11.330;2022-10-17T09:52:10;6.35;;;4.80;;
29546;SDS011;40782;47.264;11.330;2022-10-17T09:54:41;5.50;;;4.32;;
29546;SDS011;40782;47.264;11.330;2022-10-17T09:57:10;6.47;;;4.88;;
29546;SDS011;40782;47.264;11.330;2022-10-17T09:59:39;4.88;;;4.47;;
29546;SDS011;40782;47.264;11.330;2022-10-17T10:02:11;6.55;;;5.22;;
29546;SDS011;40782;47.264;11.330;2022-10-17T10:04:51;5.10;;;4.57;;
29546;SDS011;40782;47.264;11.330;2022-10-17T10:07:20;6.45;;;4.80;;
29546;SDS011;40782;47.264;11.330;2022-10-17T10:09:47;4.90;;;4.50;;
29546;SDS011;40782;47.264;11.330;2022-10-17T10:12:16;4.97;;;4.30;;
29546;SDS011;40782;47.264;11.330;2022-10-17T10:14:45;5.95;;;5.05;;
29546;SDS011;40782;47.264;11.330;2022-10-17T10:17:26;8.50;;;4.90;;
29546;SDS011;40782;47.264;11.330;2022-10-17T10:20:00;5.43;;;4.93;;
29546;SDS011;40782;47.264;11.330;2022-10-17T10:22:28;5.72;;;4.82;;
29546;SDS011;40782;47.264;11.330;2022-10-17T10:25:12;5.68;;;4.90;;
29546;SDS011;40782;47.264;11.330;2022-10-17T10:27:42;5.10;;;4.28;;
29546;SDS011;40782;47.264;11.330;2022-10-17T10:30:15;5.57;;;4.97;;
29546;SDS011;40782;47.264;11.330;2022-10-17T10:32:45;8.73;;;5.15;;
29546;SDS011;40782;47.264;11.330;2022-10-17T10:35:19;7.57;;;4.43;;
29546;SDS011;40782;47.264;11.330;2022-10-17T10:37:49;6.10;;;4.03;;
29546;SDS011;40782;47.264;11.330;2022-10-17T10:40:19;9.45;;;4.80;;
29546;SDS011;40782;47.264;11.330;2022-10-17T10:42:51;5.35;;;4.50;;
29546;SDS011;40782;47.264;11.330;2022-10-17T10:45:22;5.47;;;4.78;;
29546;SDS011;40782;47.264;11.330;2022-10-17T10:47:51;4.07;;;3.78;;
29546;SDS011;40782;47.264;11.330;2022-10-17T10:50:25;5.30;;;4.32;;
29546;SDS011;40782;47.264;11.330;2022-10-17T10:53:09;4.70;;;4.25;;
29546;SDS011;40782;47.264;11.330;2022-10-17T10:55:49;5.25;;;3.80;;
29546;SDS011;40782;47.264;11.330;2022-10-17T10:58:25;3.97;;;3.65;;
29546;SDS011;40782;47.264;11.330;2022-10-17T11:01:01;5.03;;;4.22;;
29546;SDS011;40782;47.264;11.330;2022-10-17T11:03:32;7.65;;;3.78;;
29546;SDS011;40782;47.264;11.330;2022-10-17T11:06:11;3.72;;;3.38;;
29546;SDS011;40782;47.264;11.330;2022-10-17T11:08:43;5.15;;;3.67;;
29546;SDS011;40782;47.264;11.330;2022-10-17T11:11:15;4.30;;;3.67;;
29546;SDS011;40782;47.264;11.330;2022-10-17T11:13:50;5.68;;;4.07;;
29546;SDS011;40782;47.264;11.330;2022-10-17T11:16:26;4.32;;;3.90;;
29546;SDS011;40782;47.264;11.330;2022-10-17T11:18:58;8.52;;;3.97;;
29546;SDS011;40782;47.264;11.330;2022-10-17T11:21:38;5.00;;;4.40;;
29546;SDS011;40782;47.264;11.330;2022-10-17T11:24:13;5.00;;;4.50;;
29546;SDS011;40782;47.264;11.330;2022-10-17T11:26:49;8.75;;;4.55;;
29546;SDS011;40782;47.264;11.330;2022-10-17T11:29:21;6.00;;;4.00;;
29546;SDS011;40782;47.264;11.330;2022-10-17T11:31:53;4.50;;;4.07;;
29546;SDS011;40782;47.264;11.330;2022-10-17T11:34:23;8.68;;;3.92;;
29546;SDS011;40782;47.264;11.330;2022-10-17T11:36:55;6.03;;;4.00;;
29546;SDS011;40782;47.264;11.330;2022-10-17T11:39:26;4.07;;;3.78;;
29546;SDS011;40782;47.264;11.330;2022-10-17T11:41:59;4.35;;;4.05;;
29546;SDS011;40782;47.264;11.330;2022-10-17T11:44:33;3.92;;;3.63;;
29546;SDS011;40782;47.264;11.330;2022-10-17T11:47:02;4.47;;;4.00;;
29546;SDS011;40782;47.264;11.330;2022-10-17T11:49:37;3.97;;;3.63;;
29546;SDS011;40782;47.264;11.330;2022-10-17T11:52:15;6.53;;;4.45;;
29546;SDS011;40782;47.264;11.330;2022-10-17T11:54:52;5.07;;;3.67;;
29546;SDS011;40782;47.264;11.330;2022-10-17T11:57:32;4.70;;;4.30;;
29546;SDS011;40782;47.264;11.330;2022-10-17T12:00:10;11.68;;;4.38;;
29546;SDS011;40782;47.264;11.330;2022-10-17T12:02:56;4.65;;;4.25;;
29546;SDS011;40782;47.264;11.330;2022-10-17T12:05:33;4.47;;;4.07;;
29546;SDS011;40782;47.264;11.330;2022-10-17T12:08:10;5.00;;;4.50;;
29546;SDS011;40782;47.264;11.330;2022-10-17T12:10:46;7.78;;;4.63;;
29546;SDS011;40782;47.264;11.330;2022-10-17T12:19:24;4.25;;;3.58;;
29546;SDS011;40782;47.264;11.330;2022-10-17T12:22:01;8.43;;;3.72;;
29546;SDS011;40782;47.264;11.330;2022-10-17T12:24:52;3.90;;;3.60;;
29546;SDS011;40782;47.264;11.330;2022-10-17T12:27:34;5.28;;;4.25;;
29546;SDS011;40782;47.264;11.330;2022-10-17T12:30:19;6.85;;;4.03;;
29546;SDS011;40782;47.264;11.330;2022-10-17T12:33:01;4.47;;;3.75;;
29546;SDS011;40782;47.264;11.330;2022-10-17T12:35:32;4.28;;;3.88;;
29546;SDS011;40782;47.264;11.330;2022-10-17T12:38:14;4.32;;;3.70;;
29546;SDS011;40782;47.264;11.330;2022-10-17T12:40:48;4.07;;;3.70;;
29546;SDS011;40782;47.264;11.330;2022-10-17T12:46:02;4.05;;;3.33;;
29546;SDS011;40782;47.264;11.330;2022-10-17T12:54:48;4.28;;;3.50;;
29546;SDS011;40782;47.264;11.330;2022-10-17T12:57:29;3.42;;;3.13;;
29546;SDS011;40782;47.264;11.330;2022-10-17T13:00:00;4.38;;;3.40;;
29546;SDS011;40782;47.264;11.330;2022-10-17T13:02:30;5.22;;;3.58;;
29546;SDS011;40782;47.264;11.330;2022-10-17T13:05:02;3.38;;;2.42;;
29546;SDS011;40782;47.264;11.330;2022-10-17T13:07:33;3.17;;;2.88;;
29546;SDS011;40782;47.264;11.330;2022-10-17T13:10:03;3.55;;;3.10;;
29546;SDS011;40782;47.264;11.330;2022-10-17T13:12:33;3.95;;;3.13;;
29546;SDS011;40782;47.264;11.330;2022-10-17T13:15:03;3.58;;;3.28;;
29546;SDS011;40782;47.264;11.330;2022-10-17T13:17:33;3.63;;;3.30;;
29546;SDS011;40782;47.264;11.330;2022-10-17T13:20:00;3.10;;;2.83;;
29546;SDS011;40782;47.264;11.330;2022-10-17T13:22:29;5.05;;;3.05;;
29546;SDS011;40782;47.264;11.330;2022-10-17T13:25:06;2.95;;;2.75;;
29546;SDS011;40782;47.264;11.330;2022-10-17T13:27:41;4.25;;;3.00;;
29546;SDS011;40782;47.264;11.330;2022-10-17T13:30:20;3.60;;;2.50;;
29546;SDS011;40782;47.264;11.330;2022-10-17T13:32:51;15.63;;;4.43;;
29546;SDS011;40782;47.264;11.330;2022-10-17T13:35:24;4.25;;;3.20;;
29546;SDS011;40782;47.264;11.330;2022-10-17T13:37:54;3.25;;;2.92;;
29546;SDS011;40782;47.264;11.330;2022-10-17T13:40:22;3.60;;;3.30;;
29546;SDS011;40782;47.264;11.330;2022-10-17T13:42:52;4.70;;;3.78;;
29546;SDS011;40782;47.264;11.330;2022-10-17T13:45:23;10.52;;;5.82;;
29546;SDS011;40782;47.264;11.330;2022-10-17T13:47:55;3.90;;;3.50;;
29546;SDS011;40782;47.264;11.330;2022-10-17T13:50:24;5.55;;;3.20;;
29546;SDS011;40782;47.264;11.330;2022-10-17T13:53:06;3.45;;;3.15;;
29546;SDS011;40782;47.264;11.330;2022-10-17T13:55:55;4.32;;;3.35;;
29546;SDS011;40782;47.264;11.330;2022-10-17T13:58:28;5.95;;;3.75;;
29546;SDS011;40782;47.264;11.330;2022-10-17T14:00:59;6.53;;;3.85;;
29546;SDS011;40782;47.264;11.330;2022-10-17T14:03:26;4.18;;;3.78;;
29546;SDS011;40782;47.264;11.330;2022-10-17T14:08:47;6.00;;;3.00;;
29546;SDS011;40782;47.264;11.330;2022-10-17T14:11:21;5.47;;;2.80;;
29546;SDS011;40782;47.264;11.330;2022-10-17T14:13:52;2.92;;;2.63;;
29546;SDS011;40782;47.264;11.330;2022-10-17T14:16:21;3.03;;;2.67;;
29546;SDS011;40782;47.264;11.330;2022-10-17T14:18:51;4.45;;;2.80;;
29546;SDS011;40782;47.264;11.330;2022-10-17T14:21:20;3.65;;;2.72;;
29546;SDS011;40782;47.264;11.330;2022-10-17T14:23:48;3.08;;;2.72;;
29546;SDS011;40782;47.264;11.330;2022-10-17T14:26:17;2.65;;;2.38;;
29546;SDS011;40782;47.264;11.330;2022-10-17T14:28:46;3.08;;;2.30;;
29546;SDS011;40782;47.264;11.330;2022-10-17T14:31:27;3.00;;;2.40;;
29546;SDS011;40782;47.264;11.330;2022-10-17T14:33:56;4.43;;;2.70;;
29546;SDS011;40782;47.264;11.330;2022-10-17T14:36:30;3.88;;;3.15;;
29546;SDS011;40782;47.264;11.330;2022-10-17T14:39:00;3.80;;;2.88;;
29546;SDS011;40782;47.264;11.330;2022-10-17T14:41:30;2.50;;;2.30;;
29546;SDS011;40782;47.264;11.330;2022-10-17T14:44:00;4.80;;;2.40;;
29546;SDS011;40782;47.264;11.330;2022-10-17T14:46:34;3.53;;;2.92;;
29546;SDS011;40782;47.264;11.330;2022-10-17T14:49:05;2.45;;;2.25;;
29546;SDS011;40782;47.264;11.330;2022-10-17T14:51:33;3.67;;;2.45;;
29546;SDS011;40782;47.264;11.330;2022-10-17T14:54:03;7.25;;;2.67;;
29546;SDS011;40782;47.264;11.330;2022-10-17T14:56:42;4.03;;;2.75;;
29546;SDS011;40782;47.264;11.330;2022-10-17T14:59:15;3.95;;;2.83;;
29546;SDS011;40782;47.264;11.330;2022-10-17T15:01:49;3.88;;;2.90;;
29546;SDS011;40782;47.264;11.330;2022-10-17T15:04:16;5.95;;;2.88;;
29546;SDS011;40782;47.264;11.330;2022-10-17T15:06:43;8.95;;;3.00;;
29546;SDS011;40782;47.264;11.330;2022-10-17T15:09:11;4.53;;;3.63;;
29546;SDS011;40782;47.264;11.330;2022-10-17T15:11:38;4.82;;;2.97;;
29546;SDS011;40782;47.264;11.330;2022-10-17T15:14:05;3.97;;;3.53;;
29546;SDS011;40782;47.264;11.330;2022-10-17T15:16:33;5.00;;;2.92;;
29546;SDS011;40782;47.264;11.330;2022-10-17T15:19:02;4.05;;;2.40;;
29546;SDS011;40782;47.264;11.330;2022-10-17T15:21:29;6.75;;;3.25;;